createdAt,value
2023-04-20T00:01:48.727Z,2.60
2023-04-20T00:04:16.398Z,2.90
2023-04-20T00:06:44.130Z,2.80
2023-04-20T00:09:13.507Z,2.60
2023-04-20T00:11:40.947Z,3.00
2023-04-20T00:14:08.319Z,2.80
2023-04-20T00:16:35.417Z,2.80
2023-04-20T00:19:02.870Z,3.08
2023-04-20T00:21:29.846Z,2.88
2023-04-20T00:23:56.777Z,2.67
2023-04-20T00:26:23.736Z,3.10
2023-04-20T00:28:53.710Z,2.95
2023-04-20T00:31:21.281Z,2.72
2023-04-20T00:33:49.163Z,2.63
2023-04-20T00:36:16.234Z,2.85
2023-04-20T00:38:43.169Z,2.85
2023-04-20T00:41:10.163Z,3.20
2023-04-20T00:43:37.561Z,2.60
2023-04-20T00:46:04.625Z,2.65
2023-04-20T00:48:31.658Z,2.50
2023-04-20T00:50:58.982Z,3.13
2023-04-20T00:53:26.071Z,2.83
2023-04-20T00:55:53.507Z,2.60
2023-04-20T00:58:21.360Z,2.70
2023-04-20T01:00:48.414Z,2.80
2023-04-20T01:03:18.142Z,2.60
2023-04-20T01:05:48.769Z,3.25
2023-04-20T01:08:15.733Z,2.53
2023-04-20T01:10:42.685Z,2.33
2023-04-20T01:13:09.626Z,2.72
2023-04-20T01:15:36.619Z,3.03
2023-04-20T01:18:03.768Z,2.40
2023-04-20T01:20:31.515Z,2.97
2023-04-20T01:22:58.419Z,2.80
2023-04-20T01:25:25.536Z,2.33
2023-04-20T01:27:53.376Z,2.30
2023-04-20T01:30:20.332Z,2.45
2023-04-20T01:32:47.429Z,2.63
2023-04-20T01:35:16.100Z,2.50
2023-04-20T01:37:45.232Z,2.72
2023-04-20T01:40:14.231Z,2.40
2023-04-20T01:42:41.367Z,2.95
2023-04-20T01:45:09.053Z,2.50
2023-04-20T01:47:37.132Z,2.40
2023-04-20T01:50:04.415Z,2.65
2023-04-20T01:52:31.378Z,2.45
2023-04-20T01:54:58.285Z,2.72
2023-04-20T01:57:25.270Z,2.33
2023-04-20T01:59:52.194Z,2.60
2023-04-20T02:02:19.274Z,2.28
2023-04-20T02:04:46.273Z,3.05
2023-04-20T02:07:13.212Z,2.47
2023-04-20T02:09:40.386Z,2.75
2023-04-20T02:12:08.090Z,2.70
2023-04-20T02:14:35.015Z,2.90
2023-04-20T02:17:02.655Z,2.42
2023-04-20T02:19:29.746Z,2.30
2023-04-20T02:21:56.781Z,2.28
2023-04-20T02:24:23.718Z,2.30
2023-04-20T02:26:50.729Z,2.55
2023-04-20T02:29:17.935Z,2.40
2023-04-20T02:31:45.340Z,2.55
2023-04-20T02:34:16.267Z,2.50
2023-04-20T02:36:43.148Z,2.70
2023-04-20T02:39:13.202Z,2.67
2023-04-20T02:41:40.369Z,2.63
2023-04-20T02:44:07.414Z,2.55
2023-04-20T02:46:36.874Z,2.92
2023-04-20T02:49:04.091Z,2.75
2023-04-20T02:51:34.039Z,2.40
2023-04-20T02:54:01.072Z,2.33
2023-04-20T02:56:29.424Z,2.83
2023-04-20T02:59:01.175Z,2.28
2023-04-20T03:02:03.856Z,2.63
2023-04-20T03:04:32.101Z,2.38
2023-04-20T03:07:07.232Z,2.50
2023-04-20T03:09:37.348Z,2.53
2023-04-20T03:12:13.402Z,2.25
2023-04-20T03:14:58.461Z,2.80
2023-04-20T03:17:37.909Z,2.53
2023-04-20T03:20:06.679Z,2.72
2023-04-20T03:22:33.646Z,3.03
2023-04-20T03:25:02.143Z,2.78
2023-04-20T03:27:49.304Z,2.90
2023-04-20T03:30:16.261Z,2.55
2023-04-20T03:32:46.200Z,2.70
2023-04-20T03:35:13.270Z,2.90
2023-04-20T03:37:40.926Z,2.72
2023-04-20T03:40:10.404Z,2.70
2023-04-20T03:42:37.594Z,2.83
2023-04-20T03:45:07.149Z,3.22
2023-04-20T03:47:34.253Z,2.65
2023-04-20T03:50:01.349Z,2.60
2023-04-20T03:52:28.709Z,2.88
2023-04-20T03:54:56.160Z,2.83
2023-04-20T03:57:23.187Z,2.80
2023-04-20T03:59:50.141Z,2.63
2023-04-20T04:02:22.697Z,2.67
2023-04-20T04:04:51.381Z,2.97
2023-04-20T04:07:20.923Z,2.70
2023-04-20T04:09:48.241Z,2.97
2023-04-20T04:12:17.921Z,3.00
2023-04-20T04:14:45.096Z,2.72
2023-04-20T04:17:15.005Z,2.90
2023-04-20T04:19:43.588Z,3.47
2023-04-20T04:22:10.661Z,2.80
2023-04-20T04:24:44.757Z,3.00
2023-04-20T04:27:15.585Z,3.22
2023-04-20T04:29:51.452Z,2.90
2023-04-20T04:32:20.361Z,3.00
2023-04-20T04:34:48.241Z,3.15
2023-04-20T04:37:15.375Z,3.28
2023-04-20T04:39:48.039Z,2.90
2023-04-20T04:42:21.424Z,3.40
2023-04-20T04:44:49.388Z,3.35
2023-04-20T04:47:23.703Z,3.58
2023-04-20T04:49:51.917Z,4.25
2023-04-20T04:52:18.861Z,3.25
2023-04-20T04:54:45.830Z,3.40
2023-04-20T04:57:13.125Z,3.35
2023-04-20T04:59:40.051Z,3.63
2023-04-20T05:02:07.058Z,3.38
2023-04-20T05:04:34.353Z,3.80
2023-04-20T05:07:01.586Z,3.33
2023-04-20T05:09:33.365Z,3.20
2023-04-20T05:12:01.105Z,3.63
2023-04-20T05:14:28.205Z,3.10
2023-04-20T05:16:55.105Z,3.45
2023-04-20T05:19:22.927Z,3.75
2023-04-20T05:21:49.848Z,3.20
2023-04-20T05:24:17.634Z,3.45
2023-04-20T05:26:44.616Z,3.08
2023-04-20T05:29:11.730Z,3.60
2023-04-20T05:31:38.951Z,3.40
2023-04-20T05:34:06.112Z,3.70
2023-04-20T05:36:33.804Z,3.38
2023-04-20T05:39:00.910Z,3.35
2023-04-20T05:41:27.928Z,3.58
2023-04-20T05:43:55.515Z,3.35
2023-04-20T05:46:23.896Z,3.58
2023-04-20T05:48:51.105Z,3.63
2023-04-20T05:51:18.220Z,3.30
2023-04-20T05:53:45.089Z,3.33
2023-04-20T05:56:12.019Z,3.75
2023-04-20T05:58:39.037Z,3.58
2023-04-20T06:01:06.194Z,3.22
2023-04-20T06:03:33.403Z,3.63
2023-04-20T06:06:00.817Z,3.63
2023-04-20T06:08:27.940Z,3.40
2023-04-20T06:10:57.132Z,4.00
2023-04-20T06:13:24.557Z,3.78
2023-04-20T06:15:52.839Z,3.40
2023-04-20T06:18:20.409Z,3.42
2023-04-20T06:20:47.329Z,3.88
2023-04-20T06:23:14.658Z,3.85
2023-04-20T06:25:41.943Z,3.40
2023-04-20T06:28:08.882Z,4.05
2023-04-20T06:30:36.184Z,3.80
2023-04-20T06:33:03.569Z,4.00
2023-04-20T06:35:30.622Z,3.40
2023-04-20T06:37:57.863Z,3.65
2023-04-20T06:40:28.960Z,3.80
2023-04-20T06:42:55.895Z,4.00
2023-04-20T06:45:22.995Z,3.97
2023-04-20T06:47:50.014Z,3.80
2023-04-20T06:50:16.999Z,3.70
2023-04-20T06:52:44.056Z,3.92
2023-04-20T06:55:11.448Z,3.72
2023-04-20T06:57:43.710Z,3.83
2023-04-20T07:00:12.226Z,3.40
2023-04-20T07:02:51.751Z,4.05
2023-04-20T07:05:20.620Z,3.67
2023-04-20T07:07:47.541Z,3.78
2023-04-20T07:10:16.238Z,3.47
2023-04-20T07:12:44.316Z,4.20
2023-04-20T07:15:12.556Z,4.45
2023-04-20T07:17:39.813Z,4.20
2023-04-20T07:20:08.649Z,4.30
2023-04-20T07:22:37.292Z,4.00
2023-04-20T07:25:07.390Z,4.18
2023-04-20T07:27:39.899Z,4.45
2023-04-20T07:30:09.290Z,3.88
2023-04-20T07:32:37.906Z,5.15
2023-04-20T07:35:06.084Z,4.30
2023-04-20T07:37:34.302Z,3.88
2023-04-20T07:40:01.997Z,3.83
2023-04-20T07:42:29.951Z,5.00
2023-04-20T07:44:56.915Z,4.53
2023-04-20T07:47:24.152Z,4.50
2023-04-20T07:49:51.143Z,4.13
2023-04-20T07:52:20.880Z,4.93
2023-04-20T07:54:48.028Z,4.03
2023-04-20T07:57:15.375Z,4.10
2023-04-20T07:59:42.324Z,3.92
2023-04-20T08:02:09.424Z,3.83
2023-04-20T08:04:38.275Z,3.28
2023-04-20T08:07:05.672Z,4.07
2023-04-20T08:09:32.742Z,5.07
2023-04-20T08:12:00.552Z,4.72
2023-04-20T08:14:27.656Z,4.00
2023-04-20T08:16:54.708Z,4.70
2023-04-20T08:19:21.970Z,4.50
2023-04-20T08:21:52.362Z,4.22
2023-04-20T08:24:20.838Z,4.40
2023-04-20T08:26:48.048Z,3.97
2023-04-20T08:29:15.354Z,4.13
2023-04-20T08:31:42.313Z,4.07
2023-04-20T08:34:09.305Z,4.20
2023-04-20T08:36:36.226Z,4.80
2023-04-20T08:39:13.667Z,4.32
2023-04-20T08:41:40.736Z,4.35
2023-04-20T08:44:08.421Z,4.28
2023-04-20T08:46:36.250Z,4.10
2023-04-20T08:49:04.245Z,4.85
2023-04-20T08:51:32.567Z,3.95
2023-04-20T08:54:06.699Z,4.40
2023-04-20T08:56:39.897Z,4.20
2023-04-20T08:59:10.166Z,4.30
2023-04-20T09:01:39.604Z,4.80
2023-04-20T09:04:22.851Z,3.92
2023-04-20T09:06:56.591Z,3.78
2023-04-20T09:09:27.927Z,4.80
2023-04-20T09:12:07.867Z,4.55
2023-04-20T09:14:48.487Z,4.90
2023-04-20T09:17:17.977Z,4.70
2023-04-20T09:19:52.244Z,4.85
2023-04-20T09:22:34.357Z,5.30
2023-04-20T09:25:13.372Z,4.80
2023-04-20T09:27:40.575Z,5.32
2023-04-20T09:30:09.337Z,5.07
2023-04-20T09:32:36.484Z,4.50
2023-04-20T09:35:04.203Z,5.00
2023-04-20T09:37:31.091Z,5.20
2023-04-20T09:40:00.818Z,5.40
2023-04-20T09:42:29.085Z,4.88
2023-04-20T09:44:57.410Z,5.32
2023-04-20T09:47:26.665Z,4.75
2023-04-20T09:49:54.862Z,5.15
2023-04-20T09:52:24.203Z,5.25
2023-04-20T09:54:51.943Z,5.13
2023-04-20T09:57:19.802Z,5.97
2023-04-20T09:59:47.632Z,5.60
2023-04-20T10:02:15.074Z,5.28
2023-04-20T10:04:59.034Z,5.30
2023-04-20T10:07:28.672Z,4.75
2023-04-20T10:10:12.854Z,5.35
2023-04-20T10:12:54.363Z,4.47
2023-04-20T10:15:22.855Z,3.75
2023-04-20T10:17:51.051Z,3.75
2023-04-20T10:20:25.265Z,3.45
2023-04-20T10:23:10.072Z,3.70
2023-04-20T10:25:37.711Z,3.65
2023-04-20T10:28:09.683Z,4.18
2023-04-20T10:30:50.829Z,3.67
2023-04-20T10:33:18.178Z,4.68
2023-04-20T10:35:47.485Z,4.13
2023-04-20T10:38:14.748Z,4.85
2023-04-20T10:40:42.111Z,5.05
2023-04-20T10:43:21.396Z,5.00
2023-04-20T10:45:50.292Z,4.93
2023-04-20T10:48:18.314Z,4.78
2023-04-20T10:50:46.023Z,5.70
2023-04-20T10:53:22.028Z,4.80
2023-04-20T10:56:01.033Z,5.70
2023-04-20T10:58:28.201Z,5.32
2023-04-20T11:01:04.184Z,5.40
2023-04-20T11:03:34.281Z,4.95
2023-04-20T11:06:04.002Z,5.15
2023-04-20T11:08:43.237Z,5.30
2023-04-20T11:11:25.120Z,4.93
2023-04-20T11:13:52.174Z,5.53
2023-04-20T11:16:19.862Z,5.30
2023-04-20T11:18:54.209Z,5.80
2023-04-20T11:21:22.586Z,5.45
2023-04-20T11:23:50.560Z,5.20
2023-04-20T11:26:17.640Z,5.60
2023-04-20T11:28:56.212Z,4.43
2023-04-20T11:31:23.823Z,4.32
2023-04-20T11:33:51.021Z,4.50
2023-04-20T11:36:23.705Z,4.15
2023-04-20T11:38:51.084Z,3.53
2023-04-20T11:41:18.571Z,3.58
2023-04-20T11:43:46.272Z,3.60
2023-04-20T11:46:19.435Z,3.70
2023-04-20T11:48:47.930Z,3.47
2023-04-20T11:51:15.450Z,3.72
2023-04-20T11:53:42.589Z,3.53
2023-04-20T11:56:09.585Z,3.30
2023-04-20T11:58:36.746Z,3.42
2023-04-20T12:01:05.341Z,3.10
2023-04-20T12:05:59.700Z,3.63
2023-04-20T12:08:26.620Z,3.42
2023-04-20T12:10:53.730Z,2.85
2023-04-20T12:13:20.685Z,3.10
2023-04-20T12:15:47.817Z,3.00
2023-04-20T12:18:15.080Z,3.00
2023-04-20T12:20:42.078Z,2.85
2023-04-20T12:23:09.099Z,3.20
2023-04-20T12:25:36.131Z,3.08
2023-04-20T12:28:06.711Z,2.92
2023-04-20T12:30:36.684Z,2.55
2023-04-20T12:33:04.449Z,2.95
2023-04-20T12:35:31.463Z,2.75
2023-04-20T12:37:58.483Z,3.20
2023-04-20T12:40:26.004Z,3.05
2023-04-20T12:42:53.293Z,3.03
2023-04-20T12:45:20.982Z,3.33
2023-04-20T12:47:47.939Z,3.80
2023-04-20T12:50:14.911Z,3.45
2023-04-20T12:52:41.956Z,3.47
2023-04-20T12:55:10.608Z,3.20
2023-04-20T12:57:38.302Z,3.72
2023-04-20T13:00:06.742Z,3.70
2023-04-20T13:02:33.946Z,3.38
2023-04-20T13:05:01.129Z,3.58
2023-04-20T13:07:28.186Z,3.58
2023-04-20T13:09:55.320Z,3.15
2023-04-20T13:12:22.426Z,3.50
2023-04-20T13:14:49.755Z,3.58
2023-04-20T13:17:16.690Z,3.60
2023-04-20T13:19:47.662Z,3.90
2023-04-20T13:22:18.088Z,4.05
2023-04-20T13:24:46.233Z,3.50
2023-04-20T13:27:14.158Z,3.78
2023-04-20T13:29:41.426Z,3.50
2023-04-20T13:32:08.416Z,3.63
2023-04-20T13:34:35.669Z,3.88
2023-04-20T13:37:03.483Z,4.03
2023-04-20T13:39:30.684Z,4.50
2023-04-20T13:41:58.067Z,3.80
2023-04-20T13:44:25.221Z,3.80
2023-04-20T13:46:52.163Z,4.43
2023-04-20T13:49:22.477Z,4.40
2023-04-20T13:51:50.241Z,4.40
2023-04-20T13:54:18.230Z,4.15
2023-04-20T13:56:45.593Z,4.95
2023-04-20T13:59:12.752Z,4.45
2023-04-20T14:01:39.827Z,4.07
2023-04-20T14:04:09.583Z,4.55
2023-04-20T14:06:36.587Z,4.88
2023-04-20T14:09:04.143Z,4.85
2023-04-20T14:11:31.318Z,4.57
2023-04-20T14:13:58.570Z,5.13
2023-04-20T14:16:26.291Z,4.65
2023-04-20T14:18:53.350Z,4.50
2023-04-20T14:21:20.508Z,4.75
2023-04-20T14:23:50.189Z,4.80
2023-04-20T14:26:20.519Z,4.10
2023-04-20T14:28:47.527Z,4.57
2023-04-20T14:31:14.605Z,5.38
2023-04-20T14:33:44.540Z,5.60
2023-04-20T14:36:11.531Z,5.57
2023-04-20T14:38:38.604Z,6.07
2023-04-20T14:41:05.660Z,5.90
2023-04-20T14:43:34.490Z,5.32
2023-04-20T14:46:02.479Z,5.38
2023-04-20T14:48:29.428Z,5.40
2023-04-20T14:50:57.216Z,5.60
2023-04-20T14:53:26.062Z,5.00
2023-04-20T14:55:53.169Z,5.43
2023-04-20T14:58:20.790Z,5.03
2023-04-20T15:00:48.950Z,5.20
2023-04-20T15:03:17.989Z,5.28
2023-04-20T15:05:46.830Z,5.00
2023-04-20T15:08:14.099Z,5.03
2023-04-20T15:10:41.608Z,4.95
2023-04-20T15:13:08.518Z,5.45
2023-04-20T15:15:47.514Z,5.25
2023-04-20T15:18:25.431Z,4.95
2023-04-20T15:20:53.591Z,5.88
2023-04-20T15:23:20.978Z,5.13
2023-04-20T15:25:47.916Z,5.25
2023-04-20T15:28:14.950Z,4.70
2023-04-20T15:30:42.288Z,4.72
2023-04-20T15:33:09.347Z,5.18
2023-04-20T15:35:36.713Z,5.05
2023-04-20T15:38:03.970Z,5.28
2023-04-20T15:40:31.262Z,4.63
2023-04-20T15:42:58.191Z,5.28
2023-04-20T15:45:25.295Z,4.88
2023-04-20T15:47:53.390Z,4.47
2023-04-20T15:50:20.751Z,4.07
2023-04-20T15:52:49.799Z,4.40
2023-04-20T15:55:17.475Z,4.30
2023-04-20T15:57:44.822Z,4.57
2023-04-20T16:00:13.670Z,4.15
2023-04-20T16:02:41.056Z,4.53
2023-04-20T16:05:09.424Z,5.07
2023-04-20T16:07:36.388Z,4.97
2023-04-20T16:10:05.469Z,4.60
2023-04-20T16:12:32.648Z,4.75
2023-04-20T16:15:01.581Z,4.53
2023-04-20T16:17:28.577Z,4.43
2023-04-20T16:19:55.569Z,4.65
2023-04-20T16:22:22.615Z,4.55
2023-04-20T16:24:52.590Z,4.70
2023-04-20T16:27:19.637Z,4.55
2023-04-20T16:29:46.570Z,4.82
2023-04-20T16:32:13.773Z,4.22
2023-04-20T16:34:41.071Z,4.55
2023-04-20T16:37:07.983Z,4.82
2023-04-20T16:39:36.467Z,4.95
2023-04-20T16:42:04.032Z,4.97
2023-04-20T16:44:31.686Z,4.13
2023-04-20T16:46:58.695Z,4.55
2023-04-20T16:49:26.022Z,4.68
2023-04-20T16:51:53.055Z,4.72
2023-04-20T16:54:20.276Z,4.53
2023-04-20T16:56:47.396Z,3.72
2023-04-20T16:59:14.303Z,3.40
2023-04-20T17:01:41.258Z,3.95
2023-04-20T17:04:08.583Z,3.90
2023-04-20T17:06:35.540Z,3.97
2023-04-20T17:09:06.869Z,4.05
2023-04-20T17:11:36.029Z,3.97
2023-04-20T17:14:03.420Z,3.53
2023-04-20T17:16:30.742Z,4.03
2023-04-20T17:18:58.272Z,3.88
2023-04-20T17:21:26.814Z,4.00
2023-04-20T17:23:53.825Z,3.67
2023-04-20T17:26:20.844Z,3.70
2023-04-20T17:28:47.867Z,4.38
2023-04-20T17:31:14.921Z,4.28
2023-04-20T17:33:43.292Z,4.38
2023-04-20T17:36:10.442Z,4.55
2023-04-20T17:38:38.461Z,4.03
2023-04-20T17:41:05.738Z,4.00
2023-04-20T17:43:32.755Z,4.55
2023-04-20T17:46:00.774Z,5.13
2023-04-20T17:48:27.737Z,4.35
2023-04-20T17:50:55.931Z,4.32
2023-04-20T17:53:24.472Z,3.95
2023-04-20T17:55:51.455Z,4.25
2023-04-20T17:58:18.431Z,3.88
2023-04-20T18:00:45.469Z,3.90
2023-04-20T18:03:14.663Z,3.67
2023-04-20T18:05:42.247Z,3.63
2023-04-20T18:08:10.267Z,3.50
2023-04-20T18:10:37.670Z,3.10
2023-04-20T18:13:05.933Z,3.42
2023-04-20T18:15:33.103Z,3.53
2023-04-20T18:18:00.336Z,3.88
2023-04-20T18:20:27.379Z,3.80
2023-04-20T18:22:55.761Z,3.97
2023-04-20T18:25:22.931Z,4.25
2023-04-20T18:27:49.909Z,4.22
2023-04-20T18:30:18.150Z,3.92
2023-04-20T18:32:45.153Z,4.78
2023-04-20T18:35:12.214Z,4.20
2023-04-20T18:37:39.568Z,4.88
2023-04-20T18:40:07.621Z,4.80
2023-04-20T18:42:34.644Z,4.32
2023-04-20T18:45:01.595Z,4.63
2023-04-20T18:47:29.460Z,4.55
2023-04-20T18:49:56.440Z,5.03
2023-04-20T18:52:23.523Z,4.78
2023-04-20T18:54:51.757Z,5.10
2023-04-20T18:57:21.491Z,4.50
2023-04-20T18:59:48.478Z,5.18
2023-04-20T19:02:15.537Z,5.40
2023-04-20T19:04:43.749Z,5.72
2023-04-20T19:07:10.732Z,5.40
2023-04-20T19:09:37.659Z,4.93
2023-04-20T19:12:06.142Z,4.80
2023-04-20T19:14:33.122Z,4.80
2023-04-20T19:17:02.041Z,5.28
2023-04-20T19:19:29.221Z,5.32
2023-04-20T19:21:57.720Z,5.20
2023-04-20T19:24:24.773Z,5.18
2023-04-20T19:26:52.034Z,5.25
2023-04-20T19:29:19.054Z,5.30
2023-04-20T19:31:46.022Z,5.35
2023-04-20T19:34:13.562Z,4.88
2023-04-20T19:36:41.821Z,5.30
2023-04-20T19:39:09.471Z,5.45
2023-04-20T19:41:36.552Z,5.13
2023-04-20T19:44:06.177Z,4.97
2023-04-20T19:46:33.765Z,5.80
2023-04-20T19:49:01.188Z,6.00
2023-04-20T19:51:28.241Z,5.25
2023-04-20T19:53:58.223Z,5.47
2023-04-20T19:56:25.379Z,5.15
2023-04-20T19:58:52.572Z,5.22
2023-04-20T20:01:20.987Z,5.28
2023-04-20T20:03:48.144Z,5.80
2023-04-20T20:06:15.792Z,5.55
2023-04-20T20:08:43.436Z,5.68
2023-04-20T20:11:10.524Z,5.68
2023-04-20T20:13:37.399Z,6.03
2023-04-20T20:16:04.624Z,6.18
2023-04-20T20:18:31.859Z,6.65
2023-04-20T20:20:58.791Z,7.30
2023-04-20T20:23:25.853Z,6.65
2023-04-20T20:25:52.817Z,6.80
2023-04-20T20:28:20.230Z,7.40
2023-04-20T20:30:47.207Z,8.05
2023-04-20T20:33:14.213Z,8.68
2023-04-20T20:35:41.588Z,8.85
2023-04-20T20:38:08.889Z,9.35
2023-04-20T20:40:37.007Z,9.30
2023-04-20T20:43:04.452Z,9.82
2023-04-20T20:45:32.195Z,10.20
2023-04-20T20:47:59.581Z,9.80
2023-04-20T20:50:27.826Z,10.70
2023-04-20T20:52:54.924Z,10.25
2023-04-20T20:55:22.137Z,10.70
2023-04-20T20:57:49.047Z,11.18
2023-04-20T21:00:16.313Z,10.95
2023-04-20T21:02:43.353Z,10.65
2023-04-20T21:05:10.638Z,11.73
2023-04-20T21:07:39.212Z,11.32
2023-04-20T21:10:07.160Z,11.00
2023-04-20T21:12:34.061Z,12.07
2023-04-20T21:15:01.252Z,11.48
2023-04-20T21:17:28.265Z,12.18
2023-04-20T21:19:55.281Z,12.25
2023-04-20T21:22:22.551Z,12.23
2023-04-20T21:24:49.592Z,11.48
2023-04-20T21:27:16.555Z,11.63
2023-04-20T21:29:43.527Z,12.10
2023-04-20T21:32:10.645Z,11.07
2023-04-20T21:34:37.635Z,11.73
2023-04-20T21:37:05.598Z,12.68
2023-04-20T21:39:32.829Z,12.15
2023-04-20T21:42:00.484Z,12.90
2023-04-20T21:44:27.511Z,12.63
2023-04-20T21:46:54.634Z,11.77
2023-04-20T21:49:21.892Z,12.82
2023-04-20T21:51:49.040Z,12.52
2023-04-20T21:54:16.022Z,12.65
2023-04-20T21:56:43.171Z,12.65
2023-04-20T21:59:10.176Z,13.18
2023-04-20T22:01:37.205Z,12.07
2023-04-20T22:04:04.748Z,12.40
2023-04-20T22:06:32.534Z,12.43
2023-04-20T22:08:59.791Z,11.98
2023-04-20T22:11:26.873Z,11.93
2023-04-20T22:13:54.227Z,13.00
2023-04-20T22:16:21.823Z,12.82
2023-04-20T22:18:49.181Z,13.15
2023-04-20T22:21:16.135Z,13.27
2023-04-20T22:23:43.133Z,11.77
2023-04-20T22:26:10.171Z,13.45
2023-04-20T22:28:37.170Z,12.85
2023-04-20T22:31:04.282Z,12.27
2023-04-20T22:33:31.411Z,12.60
2023-04-20T22:35:58.426Z,12.88
2023-04-20T22:38:25.604Z,13.10
2023-04-20T22:40:53.677Z,13.02
2023-04-20T22:43:21.607Z,13.90
2023-04-20T22:45:48.934Z,13.82
2023-04-20T22:48:16.315Z,13.43
2023-04-20T22:50:44.096Z,13.55
2023-04-20T22:53:11.575Z,12.93
2023-04-20T22:55:38.657Z,12.90
2023-04-20T22:58:06.134Z,14.02
2023-04-20T23:00:33.694Z,13.68
2023-04-20T23:03:01.302Z,13.80
2023-04-20T23:05:29.028Z,12.63
2023-04-20T23:07:56.284Z,14.00
2023-04-20T23:10:28.626Z,13.68
2023-04-20T23:12:56.010Z,14.55
2023-04-20T23:15:23.101Z,14.25
2023-04-20T23:17:50.717Z,14.10
2023-04-20T23:20:17.936Z,15.35
2023-04-20T23:22:45.001Z,14.55
2023-04-20T23:25:11.972Z,13.95
2023-04-20T23:27:39.045Z,13.90
2023-04-20T23:30:07.086Z,13.77
2023-04-20T23:32:34.138Z,14.30
2023-04-20T23:35:01.349Z,14.90
2023-04-20T23:37:28.320Z,14.27
2023-04-20T23:39:55.522Z,13.90
2023-04-20T23:42:22.467Z,13.98
2023-04-20T23:44:49.420Z,13.35
2023-04-20T23:47:17.475Z,13.63
2023-04-20T23:49:44.466Z,13.75
2023-04-20T23:52:11.412Z,14.02
2023-04-20T23:54:38.347Z,13.32
2023-04-20T23:57:05.372Z,13.35
2023-04-20T23:59:34.230Z,12.90
